Time;durP1;ratioP1;P1;durP2;ratioP2;P2;SDS_P1;SDS_P2;PMS_P1;PMS_P2;Temp;Humidity;BMP_temperature;BMP_pressure;BME280_temperature;BME280_humidity;BME280_pressure;Samples;Min_cycle;Max_cycle;Signal;HPM_P1;HPM_P2
2022/03/01 00:01:15;;;;;;;13.52;8.25;;;;;;;;;;5064608;28;20037;-72
2022/03/01 00:03:41;;;;;;;15.27;8.15;;;;;;;;;;5042838;28;20055;-71
2022/03/01 00:06:06;;;;;;;14.88;7.55;;;;;;;;;;5065094;28;20507;-72
2022/03/01 00:08:31;;;;;;;13.20;7.80;;;;;;;;;;5063435;28;20029;-70
2022/03/01 00:10:56;;;;;;;13.55;7.53;;;;;;;;;;5064325;28;20477;-72
2022/03/01 00:13:21;;;;;;;16.15;8.68;;;;;;;;;;5064855;28;20055;-71
2022/03/01 00:15:46;;;;;;;14.85;8.02;;;;;;;;;;5064468;28;20012;-71
2022/03/01 00:18:12;;;;;;;21.45;9.52;;;;;;;;;;5065882;28;20550;-70
2022/03/01 00:20:37;;;;;;;20.23;9.65;;;;;;;;;;5064522;28;20020;-71
2022/03/01 00:23:02;;;;;;;19.88;9.63;;;;;;;;;;5064427;28;20040;-71
2022/03/01 00:25:27;;;;;;;18.42;9.20;;;;;;;;;;5065162;28;20012;-71
2022/03/01 00:27:52;;;;;;;18.88;8.80;;;;;;;;;;5064401;28;20050;-71
2022/03/01 00:30:18;;;;;;;15.60;8.52;;;;;;;;;;5064659;28;20652;-71
2022/03/01 00:32:43;;;;;;;15.75;8.05;;;;;;;;;;5064362;28;20056;-71
2022/03/01 00:35:08;;;;;;;16.60;8.57;;;;;;;;;;5064119;28;20103;-71
2022/03/01 00:37:33;;;;;;;16.38;7.95;;;;;;;;;;5064710;28;20477;-71
2022/03/01 00:39:58;;;;;;;16.17;8.73;;;;;;;;;;5064190;28;20024;-71
2022/03/01 00:42:24;;;;;;;17.73;8.27;;;;;;;;;;5042816;28;20126;-71
2022/03/01 00:44:49;;;;;;;17.23;7.95;;;;;;;;;;5065065;28;20602;-72
2022/03/01 00:47:14;;;;;;;16.75;7.90;;;;;;;;;;5064214;28;20065;-71
2022/03/01 00:49:39;;;;;;;17.70;8.93;;;;;;;;;;5064733;28;20037;-71
2022/03/01 00:52:05;;;;;;;17.33;8.48;;;;;;;;;;5064778;28;20055;-71
2022/03/01 00:54:30;;;;;;;11.35;7.22;;;;;;;;;;5063818;28;20048;-71
2022/03/01 00:56:55;;;;;;;16.08;8.15;;;;;;;;;;5064683;28;20024;-71
2022/03/01 00:59:20;;;;;;;13.70;8.35;;;;;;;;;;5063710;28;20063;-71
2022/03/01 01:01:46;;;;;;;20.13;8.43;;;;;;;;;;5062260;28;20032;-71
2022/03/01 01:04:11;;;;;;;14.50;8.18;;;;;;;;;;5063792;28;20095;-71
2022/03/01 01:06:36;;;;;;;16.02;7.82;;;;;;;;;;5064359;28;20036;-71
2022/03/01 01:09:01;;;;;;;16.58;8.13;;;;;;;;;;5063481;28;20571;-71
2022/03/01 01:11:26;;;;;;;14.23;7.68;;;;;;;;;;5046772;28;20052;-71
2022/03/01 01:13:51;;;;;;;18.52;8.50;;;;;;;;;;5062953;28;20028;-71
2022/03/01 01:16:17;;;;;;;15.50;7.93;;;;;;;;;;5064095;28;20052;-71
2022/03/01 01:18:45;;;;;;;17.85;8.15;;;;;;;;;;5063804;28;20032;-71
2022/03/01 01:21:11;;;;;;;16.52;8.50;;;;;;;;;;5063499;28;20119;-72
2022/03/01 01:23:36;;;;;;;22.13;8.63;;;;;;;;;;5043289;28;20119;-71
2022/03/01 01:26:01;;;;;;;17.02;8.85;;;;;;;;;;5063089;28;20041;-71
2022/03/01 01:28:26;;;;;;;14.20;7.82;;;;;;;;;;5042068;28;20028;-71
2022/03/01 01:30:51;;;;;;;14.85;7.65;;;;;;;;;;5061748;28;20044;-70
2022/03/01 01:33:17;;;;;;;18.63;7.57;;;;;;;;;;5065145;28;20396;-71
2022/03/01 01:35:42;;;;;;;15.88;8.32;;;;;;;;;;5067378;28;20020;-71
2022/03/01 01:38:07;;;;;;;14.27;7.70;;;;;;;;;;5067071;28;20063;-71
2022/03/01 01:40:32;;;;;;;16.80;7.85;;;;;;;;;;5067473;28;20028;-71
2022/03/01 01:42:58;;;;;;;15.57;8.65;;;;;;;;;;5064997;28;20601;-71
2022/03/01 01:45:23;;;;;;;17.25;8.45;;;;;;;;;;5045897;28;20181;-71
2022/03/01 01:47:49;;;;;;;17.30;8.48;;;;;;;;;;5067528;28;20567;-72
2022/03/01 01:50:14;;;;;;;15.77;8.13;;;;;;;;;;5045313;28;20511;-71
2022/03/01 01:52:39;;;;;;;17.15;7.78;;;;;;;;;;5066803;28;20020;-71
2022/03/01 01:55:04;;;;;;;16.40;8.15;;;;;;;;;;5067414;28;20070;-71
2022/03/01 01:57:30;;;;;;;14.88;8.20;;;;;;;;;;5066951;28;20044;-71
2022/03/01 01:59:55;;;;;;;16.02;8.30;;;;;;;;;;5067871;28;20031;-71
2022/03/01 02:02:21;;;;;;;17.85;8.10;;;;;;;;;;5066031;28;20051;-71
2022/03/01 02:04:46;;;;;;;18.23;7.78;;;;;;;;;;5049467;28;20048;-71
2022/03/01 02:07:11;;;;;;;14.57;7.88;;;;;;;;;;5067408;28;20063;-71
2022/03/01 02:09:36;;;;;;;15.00;8.68;;;;;;;;;;5065125;28;20028;-71
2022/03/01 02:12:02;;;;;;;13.27;7.88;;;;;;;;;;5048887;28;20404;-71
2022/03/01 02:14:28;;;;;;;14.32;7.88;;;;;;;;;;5065899;28;20097;-71
2022/03/01 02:16:53;;;;;;;16.48;8.32;;;;;;;;;;5049041;28;20029;-71
2022/03/01 02:19:18;;;;;;;15.30;8.45;;;;;;;;;;5067542;28;20036;-71
2022/03/01 02:21:46;;;;;;;18.48;8.10;;;;;;;;;;5066608;28;20029;-71
2022/03/01 02:24:12;;;;;;;19.45;8.35;;;;;;;;;;5048445;28;20542;-71
2022/03/01 02:26:37;;;;;;;13.00;7.70;;;;;;;;;;5067586;28;20021;-71
2022/03/01 02:29:02;;;;;;;12.65;7.53;;;;;;;;;;5046976;28;20024;-71
2022/03/01 02:31:27;;;;;;;18.08;9.07;;;;;;;;;;5066667;28;20115;-71
2022/03/01 02:33:52;;;;;;;17.08;7.88;;;;;;;;;;5066016;28;20028;-71
2022/03/01 02:36:18;;;;;;;18.58;8.30;;;;;;;;;;5066706;28;20408;-71
2022/03/01 02:38:43;;;;;;;14.63;7.90;;;;;;;;;;5066823;28;20024;-71
2022/03/01 02:41:08;;;;;;;15.43;8.15;;;;;;;;;;5066200;28;20078;-71
2022/03/01 02:43:33;;;;;;;15.98;8.13;;;;;;;;;;5047375;28;20706;-71
2022/03/01 02:45:58;;;;;;;15.55;7.90;;;;;;;;;;5064755;28;20065;-71
2022/03/01 02:48:24;;;;;;;15.43;8.60;;;;;;;;;;5066384;28;20595;-71
2022/03/01 02:50:49;;;;;;;17.23;7.97;;;;;;;;;;5066364;28;20029;-71
2022/03/01 02:53:15;;;;;;;15.45;8.15;;;;;;;;;;5065625;28;20103;-71
2022/03/01 02:55:40;;;;;;;14.23;7.75;;;;;;;;;;5047112;28;20142;-71
2022/03/01 02:58:05;;;;;;;15.82;8.27;;;;;;;;;;5066366;28;20048;-72
2022/03/01 03:00:30;;;;;;;13.55;7.60;;;;;;;;;;5064962;28;20045;-71
2022/03/01 03:02:55;;;;;;;17.23;8.27;;;;;;;;;;5066365;28;20199;-71
2022/03/01 03:05:21;;;;;;;15.10;8.93;;;;;;;;;;5065874;28;20036;-71
2022/03/01 03:07:46;;;;;;;15.38;8.50;;;;;;;;;;5045036;28;20042;-71
2022/03/01 03:10:11;;;;;;;15.52;8.15;;;;;;;;;;5046259;28;20021;-71
2022/03/01 03:12:37;;;;;;;16.08;8.02;;;;;;;;;;5064619;28;20039;-71
2022/03/01 03:15:03;;;;;;;16.58;8.45;;;;;;;;;;5065370;28;20107;-71
2022/03/01 03:17:28;;;;;;;15.57;7.75;;;;;;;;;;5066139;28;20036;-71
2022/03/01 03:19:53;;;;;;;16.10;8.23;;;;;;;;;;5065470;28;20531;-71
2022/03/01 03:22:19;;;;;;;14.90;7.70;;;;;;;;;;5066867;28;20111;-71
2022/03/01 03:24:44;;;;;;;18.95;8.48;;;;;;;;;;5065071;28;20032;-71
2022/03/01 03:27:09;;;;;;;14.65;7.75;;;;;;;;;;5065585;28;20032;-71
2022/03/01 03:29:34;;;;;;;14.50;7.90;;;;;;;;;;5065864;28;20024;-71
2022/03/01 03:31:59;;;;;;;15.10;7.97;;;;;;;;;;5064567;28;20051;-71
2022/03/01 03:34:25;;;;;;;15.23;8.10;;;;;;;;;;5046470;28;20138;-71
2022/03/01 03:36:50;;;;;;;15.10;8.02;;;;;;;;;;5064597;28;20036;-71
2022/03/01 03:39:15;;;;;;;14.70;8.52;;;;;;;;;;5065376;28;20511;-71
2022/03/01 03:41:41;;;;;;;17.02;8.55;;;;;;;;;;5042827;28;20077;-71
2022/03/01 03:44:06;;;;;;;17.55;8.35;;;;;;;;;;5065726;28;20031;-71
2022/03/01 03:46:31;;;;;;;15.23;8.20;;;;;;;;;;5065587;28;20024;-71
2022/03/01 03:48:56;;;;;;;15.15;8.07;;;;;;;;;;5064968;28;20097;-71
2022/03/01 03:51:23;;;;;;;15.48;8.05;;;;;;;;;;5064617;28;20437;-71
2022/03/01 03:53:48;;;;;;;16.23;8.43;;;;;;;;;;5047208;28;20032;-71
2022/03/01 03:56:13;;;;;;;16.67;7.93;;;;;;;;;;5065234;28;20074;-70
2022/03/01 03:58:39;;;;;;;13.15;7.68;;;;;;;;;;5065033;28;20028;-71
2022/03/01 04:01:04;;;;;;;16.38;7.95;;;;;;;;;;5063622;28;20029;-71
2022/03/01 04:03:29;;;;;;;14.50;7.53;;;;;;;;;;5065088;28;20031;-71
2022/03/01 04:05:54;;;;;;;15.95;7.38;;;;;;;;;;5065489;28;20036;-71
2022/03/01 04:08:19;;;;;;;20.67;7.70;;;;;;;;;;5064805;28;20029;-71
2022/03/01 04:10:45;;;;;;;17.92;8.75;;;;;;;;;;5064573;28;20079;-71
2022/03/01 04:13:10;;;;;;;20.98;8.52;;;;;;;;;;5064856;28;20020;-71
2022/03/01 04:15:35;;;;;;;14.90;8.45;;;;;;;;;;5046215;28;20028;-72
2022/03/01 04:18:00;;;;;;;18.45;8.13;;;;;;;;;;5043839;28;20032;-72
2022/03/01 04:20:26;;;;;;;14.57;7.57;;;;;;;;;;5064322;28;20024;-72
2022/03/01 04:22:51;;;;;;;15.50;7.72;;;;;;;;;;5064771;28;20037;-71
2022/03/01 04:25:16;;;;;;;19.77;8.82;;;;;;;;;;5044989;28;20130;-72
2022/03/01 04:27:41;;;;;;;13.50;7.63;;;;;;;;;;5063159;28;20017;-71
2022/03/01 04:30:07;;;;;;;16.73;7.97;;;;;;;;;;5064289;28;20040;-72
2022/03/01 04:32:32;;;;;;;15.50;7.68;;;;;;;;;;5046168;28;20059;-72
2022/03/01 04:34:57;;;;;;;15.70;8.15;;;;;;;;;;5062910;28;20089;-72
2022/03/01 04:37:23;;;;;;;16.58;7.97;;;;;;;;;;5063539;28;20056;-72
2022/03/01 04:39:48;;;;;;;18.38;7.90;;;;;;;;;;5062480;28;20044;-71
2022/03/01 04:42:13;;;;;;;12.68;7.45;;;;;;;;;;5063151;28;20392;-71
2022/03/01 04:44:38;;;;;;;15.75;8.02;;;;;;;;;;5063169;28;20024;-71
2022/03/01 04:47:04;;;;;;;16.63;8.05;;;;;;;;;;5062844;28;20075;-71
2022/03/01 04:49:29;;;;;;;15.38;7.78;;;;;;;;;;5042935;28;20024;-71
2022/03/01 04:51:54;;;;;;;14.95;8.07;;;;;;;;;;5061697;28;20032;-71
2022/03/01 04:54:19;;;;;;;17.17;8.18;;;;;;;;;;5060620;28;20067;-71
2022/03/01 04:56:44;;;;;;;18.17;7.78;;;;;;;;;;5061943;28;20028;-71
2022/03/01 04:59:10;;;;;;;14.45;7.97;;;;;;;;;;5062054;28;20029;-71
2022/03/01 05:01:36;;;;;;;17.30;9.13;;;;;;;;;;5043682;28;20071;-71
2022/03/01 05:04:01;;;;;;;16.42;8.55;;;;;;;;;;5060472;28;20028;-71
2022/03/01 05:06:26;;;;;;;18.17;8.52;;;;;;;;;;5060208;28;20063;-71
2022/03/01 05:08:51;;;;;;;14.15;7.85;;;;;;;;;;5061632;28;20035;-71
2022/03/01 05:11:17;;;;;;;16.27;9.00;;;;;;;;;;5061410;28;20464;-71
2022/03/01 05:13:42;;;;;;;17.83;8.20;;;;;;;;;;5062145;28;20052;-71
2022/03/01 05:16:07;;;;;;;19.13;8.75;;;;;;;;;;5063086;28;20016;-71
2022/03/01 05:18:32;;;;;;;19.35;9.57;;;;;;;;;;5040701;28;20099;-71
2022/03/01 05:20:57;;;;;;;20.40;9.75;;;;;;;;;;5063491;28;20108;-71
2022/03/01 05:23:22;;;;;;;23.00;10.38;;;;;;;;;;5063743;28;20029;-71
2022/03/01 05:25:48;;;;;;;17.23;9.00;;;;;;;;;;5060845;28;20442;-71
2022/03/01 05:28:13;;;;;;;16.52;8.23;;;;;;;;;;5040559;28;20041;-71
2022/03/01 05:30:38;;;;;;;17.85;9.60;;;;;;;;;;5061484;28;20041;-71
2022/03/01 05:33:04;;;;;;;23.33;8.35;;;;;;;;;;5061929;28;20624;-71
2022/03/01 05:35:30;;;;;;;14.55;7.85;;;;;;;;;;5062190;28;20024;-71
2022/03/01 05:37:55;;;;;;;16.05;8.90;;;;;;;;;;5046861;28;20108;-71
2022/03/01 05:40:21;;;;;;;15.60;8.55;;;;;;;;;;5047208;28;20024;-71
2022/03/01 05:42:47;;;;;;;14.07;8.07;;;;;;;;;;5064607;28;20028;-71
2022/03/01 05:45:12;;;;;;;18.42;8.68;;;;;;;;;;5042989;28;20020;-72
2022/03/01 05:47:38;;;;;;;18.50;8.48;;;;;;;;;;5064506;28;20099;-72
2022/03/01 05:50:03;;;;;;;16.60;8.57;;;;;;;;;;5064555;28;20495;-72
2022/03/01 05:52:28;;;;;;;17.65;8.48;;;;;;;;;;5042410;28;20012;-72
2022/03/01 05:54:54;;;;;;;18.17;8.27;;;;;;;;;;5063817;28;20028;-72
2022/03/01 05:57:19;;;;;;;16.77;8.15;;;;;;;;;;5064886;28;20356;-72
2022/03/01 05:59:45;;;;;;;18.95;10.10;;;;;;;;;;5060971;28;20032;-72
2022/03/01 06:02:10;;;;;;;17.02;8.85;;;;;;;;;;5063470;28;20028;-72
2022/03/01 06:04:35;;;;;;;14.68;8.02;;;;;;;;;;5062648;28;20021;-72
2022/03/01 06:07:00;;;;;;;22.58;9.90;;;;;;;;;;5063440;28;20103;-72
2022/03/01 06:09:25;;;;;;;20.42;9.32;;;;;;;;;;5063488;28;20374;-72
2022/03/01 06:11:51;;;;;;;22.63;10.25;;;;;;;;;;5061663;28;20029;-71
2022/03/01 06:14:16;;;;;;;15.32;8.80;;;;;;;;;;5064024;28;20032;-72
2022/03/01 06:16:42;;;;;;;22.48;9.95;;;;;;;;;;5045910;28;20440;-72
2022/03/01 06:19:07;;;;;;;21.92;9.57;;;;;;;;;;5064931;28;20032;-71
2022/03/01 06:21:32;;;;;;;20.08;10.70;;;;;;;;;;5067318;28;20095;-72
2022/03/01 06:23:57;;;;;;;21.27;9.32;;;;;;;;;;5067634;28;20020;-71
2022/03/01 06:26:23;;;;;;;16.60;9.25;;;;;;;;;;5048099;28;20019;-72
2022/03/01 06:28:49;;;;;;;15.65;8.43;;;;;;;;;;5066102;28;20587;-71
2022/03/01 06:31:14;;;;;;;16.42;8.43;;;;;;;;;;5046530;28;20036;-71
2022/03/01 06:33:40;;;;;;;19.92;8.80;;;;;;;;;;5047991;28;20119;-72
2022/03/01 06:36:05;;;;;;;19.75;8.60;;;;;;;;;;5067633;28;20081;-72
2022/03/01 06:38:30;;;;;;;18.73;9.38;;;;;;;;;;5066198;28;20111;-72
2022/03/01 06:40:58;;;;;;;23.05;9.23;;;;;;;;;;5066929;28;20020;-71
2022/03/01 06:43:23;;;;;;;17.75;7.95;;;;;;;;;;5066644;28;20077;-71
2022/03/01 06:45:48;;;;;;;20.30;9.68;;;;;;;;;;5043697;28;20032;-71
2022/03/01 06:48:14;;;;;;;20.80;9.18;;;;;;;;;;5044028;28;20031;-71
2022/03/01 06:50:39;;;;;;;18.17;9.25;;;;;;;;;;5043962;28;20696;-71
2022/03/01 06:53:04;;;;;;;22.27;8.80;;;;;;;;;;5066757;28;20605;-72
2022/03/01 06:55:29;;;;;;;19.50;9.25;;;;;;;;;;5066163;28;20024;-71
2022/03/01 06:57:56;;;;;;;16.08;8.35;;;;;;;;;;5049518;28;20024;-71
2022/03/01 07:00:21;;;;;;;18.80;8.77;;;;;;;;;;5065185;28;20374;-71
2022/03/01 07:02:46;;;;;;;22.08;8.85;;;;;;;;;;5048892;28;20031;-71
2022/03/01 07:05:12;;;;;;;19.05;8.40;;;;;;;;;;5067055;28;20060;-72
2022/03/01 07:07:37;;;;;;;19.40;8.80;;;;;;;;;;5065698;28;20058;-71
2022/03/01 07:10:03;;;;;;;15.82;8.90;;;;;;;;;;5066122;28;20075;-71
2022/03/01 07:12:28;;;;;;;16.67;8.45;;;;;;;;;;5043888;28;20052;-72
2022/03/01 07:14:53;;;;;;;18.73;8.90;;;;;;;;;;5064827;28;20503;-72
2022/03/01 07:17:19;;;;;;;15.25;8.48;;;;;;;;;;5066982;28;20012;-72
2022/03/01 07:19:44;;;;;;;12.88;7.55;;;;;;;;;;5065934;28;20032;-71
2022/03/01 07:22:09;;;;;;;16.63;8.40;;;;;;;;;;5066873;28;20029;-71
2022/03/01 07:24:34;;;;;;;16.55;7.85;;;;;;;;;;5044208;28;20476;-71
2022/03/01 07:27:00;;;;;;;15.02;8.35;;;;;;;;;;5067115;28;20042;-71
2022/03/01 07:29:25;;;;;;;15.77;8.07;;;;;;;;;;5067517;28;20111;-72
2022/03/01 07:31:50;;;;;;;15.85;8.35;;;;;;;;;;5064209;28;20033;-72
2022/03/01 07:34:16;;;;;;;14.82;8.13;;;;;;;;;;5065845;28;20104;-73
2022/03/01 07:36:41;;;;;;;14.52;8.05;;;;;;;;;;5044211;28;20493;-72
2022/03/01 07:39:06;;;;;;;14.60;7.40;;;;;;;;;;5066164;28;20035;-72
2022/03/01 07:41:31;;;;;;;14.18;8.18;;;;;;;;;;5066687;28;20024;-71
2022/03/01 07:43:56;;;;;;;14.98;8.48;;;;;;;;;;5066072;28;20060;-72
2022/03/01 07:46:22;;;;;;;14.05;8.02;;;;;;;;;;5065493;28;20388;-73
2022/03/01 07:48:47;;;;;;;18.17;8.18;;;;;;;;;;5065640;28;20524;-73
2022/03/01 07:51:12;;;;;;;12.93;7.85;;;;;;;;;;5047275;28;20078;-73
2022/03/01 07:53:37;;;;;;;18.17;8.38;;;;;;;;;;5065934;28;20090;-71
2022/03/01 07:56:03;;;;;;;16.25;8.23;;;;;;;;;;5044501;28;20031;-73
2022/03/01 07:58:28;;;;;;;14.35;7.78;;;;;;;;;;5066105;28;20056;-72
2022/03/01 08:00:53;;;;;;;14.63;8.45;;;;;;;;;;5064840;28;20041;-73
2022/03/01 08:03:18;;;;;;;17.48;8.15;;;;;;;;;;5065073;28;20025;-73
2022/03/01 08:05:45;;;;;;;17.88;8.27;;;;;;;;;;5064245;28;20032;-73
2022/03/01 08:08:10;;;;;;;15.73;7.88;;;;;;;;;;5065355;28;20020;-71
2022/03/01 08:10:35;;;;;;;16.13;8.00;;;;;;;;;;5064735;28;20520;-71
2022/03/01 08:13:00;;;;;;;13.95;7.68;;;;;;;;;;5065217;28;20020;-73
2022/03/01 08:15:27;;;;;;;16.33;7.93;;;;;;;;;;5064695;28;20099;-73
2022/03/01 08:17:52;;;;;;;17.00;7.82;;;;;;;;;;5064224;28;20556;-72
2022/03/01 08:20:18;;;;;;;15.00;7.60;;;;;;;;;;5065287;28;20165;-72
2022/03/01 08:22:43;;;;;;;14.27;7.53;;;;;;;;;;5046772;28;20036;-72
2022/03/01 08:25:08;;;;;;;21.60;8.68;;;;;;;;;;5041654;28;20490;-72
2022/03/01 08:27:33;;;;;;;17.33;7.82;;;;;;;;;;5043077;28;20052;-72
2022/03/01 08:29:59;;;;;;;14.32;8.07;;;;;;;;;;5047165;28;20021;-72
2022/03/01 08:32:24;;;;;;;14.05;7.32;;;;;;;;;;5064791;28;20488;-72
2022/03/01 08:34:49;;;;;;;18.35;8.90;;;;;;;;;;5045134;28;20096;-72
2022/03/01 08:37:14;;;;;;;14.70;7.82;;;;;;;;;;5065100;28;20027;-72
2022/03/01 08:39:39;;;;;;;17.17;7.85;;;;;;;;;;5064451;28;20100;-72
2022/03/01 08:42:05;;;;;;;14.02;8.23;;;;;;;;;;5045339;28;20020;-72
2022/03/01 08:44:30;;;;;;;14.45;8.52;;;;;;;;;;5064424;28;20475;-72
2022/03/01 08:46:55;;;;;;;14.45;8.27;;;;;;;;;;5063110;28;20500;-72
2022/03/01 08:49:20;;;;;;;17.15;9.25;;;;;;;;;;5064619;28;20486;-72
2022/03/01 08:51:45;;;;;;;14.68;7.97;;;;;;;;;;5063837;28;20649;-72
2022/03/01 08:54:11;;;;;;;13.63;7.95;;;;;;;;;;5041313;28;20147;-72
2022/03/01 08:56:36;;;;;;;18.05;8.35;;;;;;;;;;5064576;28;20009;-72
2022/03/01 08:59:01;;;;;;;17.60;8.40;;;;;;;;;;5064484;28;20179;-72
2022/03/01 09:01:26;;;;;;;13.75;7.15;;;;;;;;;;5063145;28;20121;-72
2022/03/01 09:03:51;;;;;;;13.52;7.90;;;;;;;;;;5064152;28;20029;-72
2022/03/01 09:06:17;;;;;;;14.93;7.55;;;;;;;;;;5064190;28;20097;-72
2022/03/01 09:08:42;;;;;;;12.93;7.85;;;;;;;;;;5063841;28;20125;-72
2022/03/01 09:11:08;;;;;;;14.80;8.20;;;;;;;;;;5064054;28;20595;-72
2022/03/01 09:13:33;;;;;;;12.27;7.45;;;;;;;;;;5065527;28;20431;-72
2022/03/01 09:15:58;;;;;;;13.80;7.25;;;;;;;;;;5064486;28;20017;-72
2022/03/01 09:18:23;;;;;;;12.02;7.30;;;;;;;;;;5042661;28;20067;-72
2022/03/01 09:20:48;;;;;;;19.15;7.88;;;;;;;;;;5064732;28;20128;-72
2022/03/01 09:23:14;;;;;;;13.20;7.00;;;;;;;;;;5064440;28;20403;-72
2022/03/01 09:25:39;;;;;;;15.65;7.53;;;;;;;;;;5064153;28;20086;-72
2022/03/01 09:28:04;;;;;;;14.07;8.02;;;;;;;;;;5064307;28;20489;-72
2022/03/01 09:30:29;;;;;;;13.85;7.32;;;;;;;;;;5045893;28;20043;-72
2022/03/01 09:32:55;;;;;;;16.02;7.10;;;;;;;;;;5046964;28;20195;-72
2022/03/01 09:35:21;;;;;;;13.20;7.63;;;;;;;;;;5041303;28;20076;-72
2022/03/01 09:37:46;;;;;;;14.35;7.45;;;;;;;;;;5045808;28;20031;-72
2022/03/01 09:40:12;;;;;;;13.57;6.90;;;;;;;;;;5063914;28;20544;-72
2022/03/01 09:42:37;;;;;;;12.00;7.18;;;;;;;;;;5041504;28;20031;-72
2022/03/01 09:45:02;;;;;;;11.10;6.68;;;;;;;;;;5046565;28;20024;-72
2022/03/01 09:47:27;;;;;;;13.38;6.57;;;;;;;;;;5064020;28;20123;-72
2022/03/01 09:49:53;;;;;;;13.23;7.18;;;;;;;;;;5064149;28;20484;-72
2022/03/01 09:52:19;;;;;;;9.90;6.63;;;;;;;;;;5064802;28;20050;-72
2022/03/01 09:54:44;;;;;;;11.15;6.50;;;;;;;;;;5066287;28;20016;-72
2022/03/01 09:57:13;;;;;;;13.40;7.38;;;;;;;;;;5067483;28;20027;-72
2022/03/01 09:59:38;;;;;;;14.93;8.93;;;;;;;;;;5045379;28;20025;-72
2022/03/01 10:02:03;;;;;;;13.50;9.02;;;;;;;;;;5067203;28;20042;-72
2022/03/01 10:04:28;;;;;;;12.90;6.88;;;;;;;;;;5067763;28;20094;-72
2022/03/01 10:06:54;;;;;;;16.13;9.32;;;;;;;;;;5066629;28;20017;-72
2022/03/01 10:09:23;;;;;;;14.20;9.07;;;;;;;;;;5067572;28;20067;-72
2022/03/01 10:11:48;;;;;;;18.77;8.80;;;;;;;;;;5050447;28;20032;-73
2022/03/01 10:14:14;;;;;;;11.32;7.15;;;;;;;;;;5067077;28;20030;-72
2022/03/01 10:16:40;;;;;;;13.18;7.25;;;;;;;;;;5067877;28;20474;-72
2022/03/01 10:19:08;;;;;;;13.20;7.45;;;;;;;;;;5033004;28;20107;-72
2022/03/01 10:21:33;;;;;;;13.00;6.95;;;;;;;;;;5048792;28;20028;-72
2022/03/01 10:23:58;;;;;;;12.82;7.10;;;;;;;;;;5067285;28;20457;-72
2022/03/01 10:26:24;;;;;;;10.25;6.68;;;;;;;;;;5067692;28;20025;-73
2022/03/01 10:28:50;;;;;;;10.65;6.55;;;;;;;;;;5066357;28;20045;-72
2022/03/01 10:31:16;;;;;;;10.30;6.40;;;;;;;;;;5066069;28;20544;-72
2022/03/01 10:34:06;;;;;;;8.13;5.45;;;;;;;;;;5066115;28;20109;-72
2022/03/01 10:36:35;;;;;;;13.13;7.45;;;;;;;;;;5066626;28;20423;-72
2022/03/01 10:39:04;;;;;;;10.23;6.47;;;;;;;;;;5066155;28;20059;-72
2022/03/01 10:41:31;;;;;;;10.10;6.35;;;;;;;;;;5067003;28;20039;-72
2022/03/01 10:43:57;;;;;;;8.40;5.40;;;;;;;;;;5066291;28;20033;-72
2022/03/01 10:46:24;;;;;;;11.13;6.25;;;;;;;;;;5049792;28;20062;-72
2022/03/01 10:49:01;;;;;;;10.00;6.28;;;;;;;;;;5048977;28;20086;-72
2022/03/01 10:51:26;;;;;;;8.18;5.28;;;;;;;;;;5066753;28;20039;-72
2022/03/01 10:53:52;;;;;;;11.32;6.10;;;;;;;;;;5043497;28;20060;-72
2022/03/01 10:56:17;;;;;;;10.23;5.88;;;;;;;;;;5066904;28;20047;-72
2022/03/01 10:58:43;;;;;;;7.13;4.75;;;;;;;;;;5067054;28;20021;-72
2022/03/01 11:01:09;;;;;;;10.25;7.10;;;;;;;;;;5065756;28;20369;-72
2022/03/01 11:03:35;;;;;;;11.80;6.68;;;;;;;;;;5033187;28;20419;-72
2022/03/01 11:06:00;;;;;;;8.48;5.45;;;;;;;;;;5065319;28;20036;-72
2022/03/01 11:08:31;;;;;;;9.98;5.60;;;;;;;;;;5016596;28;20032;-72
2022/03/01 11:10:57;;;;;;;7.70;4.60;;;;;;;;;;5044263;28;20035;-73
2022/03/01 11:13:23;;;;;;;10.93;6.25;;;;;;;;;;5051067;28;20025;-72
2022/03/01 11:16:08;;;;;;;9.07;6.03;;;;;;;;;;5042725;28;20123;-72
2022/03/01 11:19:01;;;;;;;7.85;5.45;;;;;;;;;;5066278;28;20029;-72
2022/03/01 11:21:26;;;;;;;9.95;6.97;;;;;;;;;;5066057;28;20017;-72
2022/03/01 11:23:52;;;;;;;10.95;5.85;;;;;;;;;;5048073;28;20160;-72
2022/03/01 11:26:18;;;;;;;8.55;5.32;;;;;;;;;;5033052;28;20028;-72
2022/03/01 11:28:54;;;;;;;11.45;6.85;;;;;;;;;;5066361;28;20052;-72
2022/03/01 11:31:26;;;;;;;8.40;5.60;;;;;;;;;;5063437;28;20028;-72
2022/03/01 11:34:00;;;;;;;10.88;5.85;;;;;;;;;;5045908;28;20408;-72
2022/03/01 11:36:27;;;;;;;9.40;5.35;;;;;;;;;;5046019;28;20032;-72
2022/03/01 11:38:52;;;;;;;9.57;5.90;;;;;;;;;;5043481;28;20036;-72
2022/03/01 11:41:22;;;;;;;9.43;5.68;;;;;;;;;;5065517;28;20035;-73
2022/03/01 11:43:55;;;;;;;7.50;4.95;;;;;;;;;;5066493;28;20020;-73
2022/03/01 11:46:21;;;;;;;8.60;5.82;;;;;;;;;;5046864;28;20021;-73
2022/03/01 11:48:54;;;;;;;7.00;4.70;;;;;;;;;;5066055;28;20097;-72
2022/03/01 11:51:29;;;;;;;6.68;4.53;;;;;;;;;;5032330;28;20077;-72
2022/03/01 11:53:55;;;;;;;5.63;3.53;;;;;;;;;;5044934;28;20427;-72
2022/03/01 11:56:20;;;;;;;7.80;3.70;;;;;;;;;;5065955;28;20037;-73
2022/03/01 11:58:49;;;;;;;7.63;4.80;;;;;;;;;;5027254;28;20103;-73
2022/03/01 12:01:14;;;;;;;7.85;4.13;;;;;;;;;;5039658;28;20081;-72
2022/03/01 12:03:40;;;;;;;6.60;3.83;;;;;;;;;;5065496;28;20017;-73
2022/03/01 12:06:06;;;;;;;5.35;3.97;;;;;;;;;;5065166;28;20032;-72
2022/03/01 12:08:31;;;;;;;8.13;4.35;;;;;;;;;;5028051;28;20745;-72
2022/03/01 12:10:57;;;;;;;4.80;4.00;;;;;;;;;;5046784;28;20039;-73
2022/03/01 12:13:37;;;;;;;7.93;4.25;;;;;;;;;;5064685;28;20021;-72
2022/03/01 12:16:02;;;;;;;6.20;4.25;;;;;;;;;;5064073;28;20485;-72
2022/03/01 12:18:30;;;;;;;8.55;4.72;;;;;;;;;;5062301;28;20021;-73
2022/03/01 12:21:20;;;;;;;10.77;4.95;;;;;;;;;;5052169;28;20232;-73
2022/03/01 12:23:45;;;;;;;6.40;5.07;;;;;;;;;;5046318;28;20036;-73
2022/03/01 12:26:14;;;;;;;7.32;5.00;;;;;;;;;;5064695;28;20031;-73
2022/03/01 12:28:45;;;;;;;5.43;4.43;;;;;;;;;;5063943;28;20070;-72
2022/03/01 12:31:14;;;;;;;6.70;3.90;;;;;;;;;;5030203;28;20117;-72
2022/03/01 12:33:54;;;;;;;7.55;5.35;;;;;;;;;;5063546;28;20029;-73
2022/03/01 12:36:24;;;;;;;6.25;4.47;;;;;;;;;;5043994;28;20059;-73
2022/03/01 12:39:13;;;;;;;7.32;4.88;;;;;;;;;;5029017;28;20056;-73
2022/03/01 12:41:39;;;;;;;6.28;4.85;;;;;;;;;;5064528;28;20495;-73
2022/03/01 12:44:06;;;;;;;7.05;5.10;;;;;;;;;;5045254;28;20024;-73
2022/03/01 12:46:32;;;;;;;8.65;5.60;;;;;;;;;;5041610;28;20070;-73
2022/03/01 12:48:58;;;;;;;6.97;4.95;;;;;;;;;;5042789;28;20446;-73
2022/03/01 12:51:24;;;;;;;6.53;4.57;;;;;;;;;;5043093;28;20043;-72
2022/03/01 12:54:00;;;;;;;6.85;4.95;;;;;;;;;;5041871;28;20028;-73
2022/03/01 12:56:34;;;;;;;8.38;5.35;;;;;;;;;;5042209;28;20020;-72
2022/03/01 12:59:03;;;;;;;;;;;;;;;;;;5043923;28;20069;-72
2022/03/01 13:01:29;;;;;;;6.10;4.82;;;;;;;;;;5063863;28;19959;-72
2022/03/01 13:03:54;;;;;;;7.07;4.05;;;;;;;;;;5041992;28;20028;-72
2022/03/01 13:06:20;;;;;;;5.65;4.13;;;;;;;;;;5046125;28;20016;-73
2022/03/01 13:08:48;;;;;;;6.40;4.03;;;;;;;;;;5063829;28;20033;-73
2022/03/01 13:11:14;;;;;;;6.00;4.15;;;;;;;;;;5045824;28;20128;-73
2022/03/01 13:13:43;;;;;;;6.80;4.43;;;;;;;;;;5028453;28;20051;-72
2022/03/01 13:16:09;;;;;;;5.65;3.83;;;;;;;;;;5045862;28;20547;-73
2022/03/01 13:18:34;;;;;;;6.45;4.40;;;;;;;;;;5064747;28;20032;-73
2022/03/01 13:20:59;;;;;;;6.00;4.50;;;;;;;;;;5046409;28;20671;-73
2022/03/01 13:23:29;;;;;;;6.13;3.95;;;;;;;;;;5064291;28;20012;-73
2022/03/01 13:25:55;;;;;;;8.05;4.25;;;;;;;;;;5045621;28;20033;-72
2022/03/01 13:28:49;;;;;;;7.28;4.25;;;;;;;;;;5029598;28;20036;-72
2022/03/01 13:31:25;;;;;;;6.65;4.22;;;;;;;;;;5056400;28;20032;-72
2022/03/01 13:33:54;;;;;;;6.38;4.15;;;;;;;;;;5048002;28;20377;-72
2022/03/01 13:36:19;;;;;;;5.05;3.78;;;;;;;;;;5070745;28;20070;-72
2022/03/01 13:38:55;;;;;;;4.57;3.65;;;;;;;;;;5068745;28;20024;-72
2022/03/01 13:41:26;;;;;;;5.85;4.15;;;;;;;;;;5070763;28;20444;-72
2022/03/01 13:43:52;;;;;;;6.13;3.95;;;;;;;;;;5070279;28;20028;-72
2022/03/01 13:46:17;;;;;;;4.32;3.60;;;;;;;;;;5070668;28;20035;-73
2022/03/01 13:48:43;;;;;;;4.22;3.40;;;;;;;;;;5069687;28;20032;-73
2022/03/01 13:51:08;;;;;;;3.95;3.53;;;;;;;;;;5036005;28;20012;-72
2022/03/01 13:53:34;;;;;;;3.78;3.30;;;;;;;;;;5070491;28;20029;-72
2022/03/01 13:55:59;;;;;;;4.57;3.65;;;;;;;;;;5069612;28;20036;-72
2022/03/01 13:58:26;;;;;;;4.72;3.42;;;;;;;;;;5071193;28;20097;-72
2022/03/01 14:00:52;;;;;;;3.75;3.38;;;;;;;;;;5048325;28;20052;-72
2022/03/01 14:03:22;;;;;;;4.05;3.67;;;;;;;;;;5069692;28;20031;-72
2022/03/01 14:06:01;;;;;;;4.25;3.85;;;;;;;;;;5068970;28;20537;-72
2022/03/01 14:08:27;;;;;;;3.83;3.53;;;;;;;;;;5048460;28;20017;-72
2022/03/01 14:10:58;;;;;;;3.47;3.15;;;;;;;;;;5069129;28;20032;-72
2022/03/01 14:13:27;;;;;;;4.45;3.83;;;;;;;;;;5069213;28;20029;-72
2022/03/01 14:16:06;;;;;;;4.10;3.75;;;;;;;;;;5069532;28;20031;-72
2022/03/01 14:18:34;;;;;;;4.75;4.10;;;;;;;;;;5037627;28;20016;-72
2022/03/01 14:20:59;;;;;;;4.60;3.72;;;;;;;;;;5050482;28;20490;-72
2022/03/01 14:23:25;;;;;;;4.10;3.70;;;;;;;;;;5070335;28;20040;-72
2022/03/01 14:25:50;;;;;;;4.15;3.70;;;;;;;;;;5069153;28;20125;-72
2022/03/01 14:28:15;;;;;;;5.25;4.15;;;;;;;;;;5070894;28;20400;-72